Terminal Aerodrome Forecast
Issued by NWS

Home | Current Version | Previous Version | Graphics & Text | Print | Product List | Glossary On
Versions: 1 2 3 4 5 6 7 8 9 10 11 12 13 14 15
000
FTUS43 KGRB 272320
TAFMTW
TAF
KMTW 272320Z 2800/2824 05012G19KT P6SM SCT100 OVC200
     FM280300 04010G17KT P6SM SCT090 OVC150
     FM281600 06012G18KT P6SM SCT060 OVC090=

USA.gov is the U.S. government's official web portal to all federal, state and local government web resources and services.